Time;durP1;ratioP1;P1;durP2;ratioP2;P2;SDS_P1;SDS_P2;PMS_P1;PMS_P2;Temp;Humidity;BMP_temperature;BMP_pressure;BME280_temperature;BME280_humidity;BME280_pressure;Samples;Min_cycle;Max_cycle;Signal;HPM_P1;HPM_P2
2024/01/27 00:01:34;;;;;;;477.30;230.43;;;4.50;99.90;;;;;;5096455;28;20486;-57
2024/01/27 00:03:59;;;;;;;527.55;242.75;;;4.60;99.90;;;;;;5096822;28;20028;-57
2024/01/27 00:06:25;;;;;;;531.20;250.20;;;4.70;99.90;;;;;;5096855;28;20024;-57
2024/01/27 00:08:51;;;;;;;500.20;237.13;;;4.70;99.90;;;;;;5096415;28;20081;-57
2024/01/27 00:11:17;;;;;;;472.95;224.55;;;4.60;99.90;;;;;;5096632;28;20032;-57
2024/01/27 00:13:43;;;;;;;504.52;228.63;;;4.70;99.90;;;;;;5096644;28;20024;-57
2024/01/27 00:16:09;;;;;;;476.60;223.52;;;4.60;99.90;;;;;;5096578;28;20026;-57
2024/01/27 00:18:39;;;;;;;543.35;234.82;;;4.60;99.90;;;;;;5096448;28;20039;-57
2024/01/27 00:21:06;;;;;;;552.22;239.70;;;4.50;99.90;;;;;;5096516;28;20027;-57
2024/01/27 00:23:32;;;;;;;468.08;210.63;;;4.50;99.90;;;;;;5096348;28;20088;-57
2024/01/27 00:25:58;;;;;;;446.30;198.80;;;4.60;99.90;;;;;;5096476;28;20032;-57
2024/01/27 00:28:24;;;;;;;428.98;198.65;;;4.60;99.90;;;;;;5096321;28;20031;-57
2024/01/27 00:30:50;;;;;;;388.40;176.38;;;4.60;99.90;;;;;;5096219;28;20158;-57
2024/01/27 00:33:16;;;;;;;401.25;173.93;;;4.70;99.90;;;;;;5096330;28;20028;-57
2024/01/27 00:35:42;;;;;;;360.58;162.77;;;4.80;99.90;;;;;;5096197;28;20056;-57
2024/01/27 00:38:09;;;;;;;354.67;154.95;;;4.90;99.90;;;;;;5095985;28;20036;-57
2024/01/27 00:40:35;;;;;;;343.27;158.70;;;5.00;99.90;;;;;;5096251;28;20046;-57
2024/01/27 00:43:03;;;;;;;297.25;132.75;;;5.00;99.90;;;;;;5096166;28;20089;-57
2024/01/27 00:45:30;;;;;;;319.60;138.43;;;4.90;99.90;;;;;;5095992;28;20028;-57
2024/01/27 00:47:58;;;;;;;389.42;156.98;;;5.00;99.90;;;;;;5095966;28;20035;-57
2024/01/27 00:50:24;;;;;;;356.63;155.52;;;4.90;99.90;;;;;;5096064;28;20024;-57
2024/01/27 00:52:50;;;;;;;325.13;147.07;;;4.90;99.90;;;;;;5095908;28;20016;-57
2024/01/27 00:55:17;;;;;;;325.60;144.85;;;4.90;99.90;;;;;;5096007;28;20363;-57
2024/01/27 00:57:43;;;;;;;319.02;137.32;;;5.00;99.90;;;;;;5095798;28;20078;-57
2024/01/27 01:00:10;;;;;;;350.85;142.63;;;5.10;99.90;;;;;;5095333;28;20070;-57
2024/01/27 01:02:36;;;;;;;341.80;138.13;;;5.10;99.90;;;;;;5095933;28;20110;-57
2024/01/27 01:05:03;;;;;;;340.45;137.75;;;5.20;99.90;;;;;;5095749;28;20448;-57
2024/01/27 01:07:33;;;;;;;313.00;130.15;;;5.20;99.90;;;;;;5095566;28;20021;-57
2024/01/27 01:09:59;;;;;;;336.85;136.13;;;5.20;99.90;;;;;;5095720;28;20028;-57
2024/01/27 01:12:28;;;;;;;324.33;133.75;;;5.20;99.90;;;;;;5095427;28;20044;-57
2024/01/27 01:14:53;;;;;;;287.40;123.85;;;5.10;99.90;;;;;;5095692;28;20549;-57
2024/01/27 01:17:19;;;;;;;252.05;114.43;;;5.10;99.90;;;;;;5095353;28;20118;-57
2024/01/27 01:19:45;;;;;;;249.18;110.07;;;5.10;99.90;;;;;;5095985;28;20080;-57
2024/01/27 01:22:11;;;;;;;265.05;114.97;;;5.10;99.90;;;;;;5095563;28;20085;-57
2024/01/27 01:24:37;;;;;;;312.48;125.82;;;5.10;99.90;;;;;;5095538;28;20024;-57
2024/01/27 01:27:03;;;;;;;316.10;126.75;;;5.00;99.90;;;;;;5095417;28;20040;-57
2024/01/27 01:29:29;;;;;;;285.35;121.50;;;5.10;99.90;;;;;;5095546;28;20024;-57
2024/01/27 01:31:55;;;;;;;255.13;114.13;;;5.00;99.90;;;;;;5095745;28;20484;-57
2024/01/27 01:34:21;;;;;;;251.10;111.90;;;4.90;99.90;;;;;;5095581;28;20020;-57
2024/01/27 01:36:48;;;;;;;261.70;115.22;;;4.90;99.90;;;;;;5095184;28;20040;-57
2024/01/27 01:39:14;;;;;;;314.13;128.98;;;4.90;99.90;;;;;;5094518;28;20032;-57
2024/01/27 01:41:40;;;;;;;332.70;136.18;;;4.90;99.90;;;;;;5095405;28;20024;-57
2024/01/27 01:44:07;;;;;;;328.90;128.30;;;4.90;99.90;;;;;;5095450;28;20065;-57
2024/01/27 01:46:33;;;;;;;275.73;116.43;;;4.90;99.90;;;;;;5095413;28;20103;-57
2024/01/27 01:49:00;;;;;;;241.80;105.20;;;4.90;99.90;;;;;;5095083;28;20044;-57
2024/01/27 01:51:29;;;;;;;202.43;92.75;;;4.90;99.90;;;;;;5095456;28;20046;-57
2024/01/27 01:53:58;;;;;;;191.77;83.32;;;4.90;99.90;;;;;;5095282;28;20024;-57
2024/01/27 01:56:25;;;;;;;181.43;80.93;;;4.90;99.90;;;;;;5095387;28;20024;-57
2024/01/27 01:58:51;;;;;;;169.75;77.97;;;4.90;99.90;;;;;;5095326;28;20032;-57
2024/01/27 02:01:18;;;;;;;154.98;72.25;;;4.90;99.90;;;;;;5095368;28;20174;-57
2024/01/27 02:03:56;;;;;;;195.82;88.22;;;4.90;99.90;;;;;;5095237;28;20039;-57
2024/01/27 02:06:23;;;;;;;199.60;90.75;;;4.90;99.90;;;;;;5095328;28;20035;-57
2024/01/27 02:08:49;;;;;;;189.38;84.15;;;4.80;99.90;;;;;;5094942;28;20035;-57
2024/01/27 02:11:15;;;;;;;164.05;78.38;;;4.80;99.90;;;;;;5095758;28;20112;-57
2024/01/27 02:13:42;;;;;;;154.68;72.90;;;4.80;99.90;;;;;;5098928;28;20028;-57
2024/01/27 02:16:08;;;;;;;146.55;68.43;;;4.70;99.90;;;;;;5099148;28;20027;-57
2024/01/27 02:18:33;;;;;;;136.52;64.30;;;4.80;99.90;;;;;;5098840;28;20032;-57
2024/01/27 02:20:59;;;;;;;124.57;58.97;;;4.80;99.90;;;;;;5098813;28;20028;-57
2024/01/27 02:23:25;;;;;;;112.75;54.45;;;4.90;99.90;;;;;;5099078;28;20024;-57
2024/01/27 02:25:51;;;;;;;104.45;51.55;;;4.90;99.90;;;;;;5098617;28;20035;-57
2024/01/27 02:28:17;;;;;;;87.25;41.97;;;5.00;99.90;;;;;;5098737;28;20099;-57
2024/01/27 02:30:43;;;;;;;55.80;28.38;;;5.10;99.90;;;;;;5098716;28;20024;-57
2024/01/27 02:33:09;;;;;;;54.30;25.58;;;5.30;99.90;;;;;;5098722;28;20028;-57
2024/01/27 02:35:35;;;;;;;27.95;11.63;;;5.50;99.90;;;;;;5098625;28;20031;-57
2024/01/27 02:38:01;;;;;;;25.27;12.20;;;5.80;99.90;;;;;;5098454;28;20020;-57
2024/01/27 02:40:27;;;;;;;23.52;10.23;;;6.10;99.90;;;;;;5098519;28;20098;-57
2024/01/27 02:42:53;;;;;;;21.45;8.98;;;6.30;99.90;;;;;;5098507;28;20032;-57
2024/01/27 02:45:19;;;;;;;21.33;8.65;;;6.60;99.90;;;;;;5098365;28;20023;-57
2024/01/27 02:47:45;;;;;;;17.58;7.70;;;6.60;99.90;;;;;;5098292;28;20026;-57
2024/01/27 02:50:11;;;;;;;18.38;7.68;;;6.80;99.90;;;;;;5098360;28;20035;-57
2024/01/27 02:52:37;;;;;;;12.88;5.55;;;6.90;99.90;;;;;;5098278;28;20051;-57
2024/01/27 02:55:03;;;;;;;16.27;7.32;;;6.90;99.90;;;;;;5096445;28;20039;-57
2024/01/27 02:57:29;;;;;;;12.95;6.07;;;7.10;99.90;;;;;;5097736;28;20028;-57
2024/01/27 02:59:55;;;;;;;14.55;5.93;;;7.20;99.90;;;;;;5098090;28;20157;-57
2024/01/27 03:02:21;;;;;;;11.77;4.93;;;7.30;99.90;;;;;;5098122;28;20032;-57
2024/01/27 03:04:47;;;;;;;8.40;5.28;;;7.30;99.90;;;;;;5098026;28;20508;-57
2024/01/27 03:07:12;;;;;;;11.93;5.18;;;7.30;99.90;;;;;;5097651;28;20024;-57
2024/01/27 03:09:38;;;;;;;8.98;4.30;;;7.30;99.90;;;;;;5097734;28;20020;-57
2024/01/27 03:12:04;;;;;;;7.55;3.90;;;7.30;99.90;;;;;;5097933;28;20212;-57
2024/01/27 03:14:30;;;;;;;10.57;4.32;;;7.30;99.90;;;;;;5097858;28;20103;-57
2024/01/27 03:16:56;;;;;;;7.93;3.45;;;7.40;99.10;;;;;;5097663;28;20062;-57
2024/01/27 03:19:22;;;;;;;8.20;3.17;;;7.40;98.00;;;;;;5097689;28;20067;-57
2024/01/27 03:21:48;;;;;;;8.68;2.70;;;7.50;97.90;;;;;;5097742;28;20115;-57
2024/01/27 03:24:14;;;;;;;8.63;3.70;;;7.50;96.90;;;;;;5096919;28;20028;-57
2024/01/27 03:26:39;;;;;;;11.02;4.03;;;7.50;97.10;;;;;;5097425;28;20036;-58
2024/01/27 03:29:05;;;;;;;8.57;4.25;;;7.50;97.50;;;;;;5097516;28;20043;-57
2024/01/27 03:31:34;;;;;;;15.30;5.50;;;7.60;97.40;;;;;;5097589;28;20415;-57
2024/01/27 03:34:00;;;;;;;22.23;6.75;;;7.50;97.50;;;;;;5097434;28;20031;-57
2024/01/27 03:36:27;;;;;;;17.70;5.97;;;7.50;97.80;;;;;;5097324;28;20036;-57
2024/01/27 03:38:53;;;;;;;20.52;6.70;;;7.50;97.40;;;;;;5097166;28;20032;-57
2024/01/27 03:41:19;;;;;;;20.73;6.00;;;7.50;97.10;;;;;;5097367;28;20038;-57
2024/01/27 03:43:45;;;;;;;12.00;4.55;;;7.50;96.90;;;;;;5097310;28;20378;-57
2024/01/27 03:46:11;;;;;;;16.55;5.97;;;7.50;96.30;;;;;;5097216;28;20039;-57
2024/01/27 03:48:36;;;;;;;14.10;5.65;;;7.40;96.50;;;;;;5097036;28;20540;-57
2024/01/27 03:51:03;;;;;;;12.57;5.60;;;7.40;96.30;;;;;;5097135;28;20062;-57
2024/01/27 03:53:29;;;;;;;11.30;5.03;;;7.40;96.10;;;;;;5097109;28;20051;-57
2024/01/27 03:55:59;;;;;;;13.13;5.40;;;7.50;96.30;;;;;;5097139;28;20111;-57
2024/01/27 03:58:25;;;;;;;12.32;5.47;;;7.40;96.20;;;;;;5096825;28;20039;-57
2024/01/27 04:00:51;;;;;;;14.80;5.65;;;7.40;96.10;;;;;;5096890;28;20419;-57
2024/01/27 04:03:17;;;;;;;13.20;6.53;;;7.40;96.10;;;;;;5096861;28;20024;-57
2024/01/27 04:05:43;;;;;;;16.63;6.45;;;7.40;96.30;;;;;;5096848;28;20556;-57
2024/01/27 04:08:09;;;;;;;13.73;6.22;;;7.30;96.40;;;;;;5096615;28;20043;-57
2024/01/27 04:10:36;;;;;;;18.23;6.70;;;7.20;96.50;;;;;;5097028;28;20023;-57
2024/01/27 04:13:02;;;;;;;22.33;7.47;;;7.10;96.60;;;;;;5095283;28;20044;-57
2024/01/27 04:15:28;;;;;;;16.42;7.57;;;7.10;96.70;;;;;;5096673;28;20031;-57
2024/01/27 04:17:54;;;;;;;13.05;6.70;;;7.00;96.70;;;;;;5096467;28;20480;-57
2024/01/27 04:20:20;;;;;;;15.05;7.10;;;6.80;97.00;;;;;;5096559;28;20539;-57
2024/01/27 04:22:46;;;;;;;17.77;7.22;;;6.70;97.10;;;;;;5096597;28;20031;-57
2024/01/27 04:25:12;;;;;;;14.73;5.80;;;6.60;97.00;;;;;;5096529;28;20110;-57
2024/01/27 04:27:39;;;;;;;18.15;5.35;;;6.50;97.00;;;;;;5096270;28;20042;-57
2024/01/27 04:30:07;;;;;;;13.32;5.18;;;6.50;96.70;;;;;;5096402;28;20397;-57
2024/01/27 04:32:33;;;;;;;11.55;5.10;;;6.50;96.30;;;;;;5096336;28;20036;-57
2024/01/27 04:34:59;;;;;;;18.02;6.97;;;6.50;96.40;;;;;;5095411;28;20082;-57
2024/01/27 04:37:25;;;;;;;15.23;5.72;;;6.40;96.30;;;;;;5096165;28;20569;-57
2024/01/27 04:39:51;;;;;;;11.02;4.75;;;6.30;96.30;;;;;;5096154;28;20446;-58
2024/01/27 04:42:17;;;;;;;9.65;4.53;;;6.20;96.60;;;;;;5096247;28;20047;-57
2024/01/27 04:44:43;;;;;;;10.18;4.32;;;6.00;96.80;;;;;;5096153;28;20024;-57
2024/01/27 04:47:08;;;;;;;9.07;5.00;;;6.00;96.70;;;;;;5096087;28;20024;-57
2024/01/27 04:49:34;;;;;;;12.35;3.72;;;5.90;96.70;;;;;;5095972;28;20032;-57
2024/01/27 04:52:00;;;;;;;7.60;3.20;;;5.80;96.80;;;;;;5096097;28;20027;-57
2024/01/27 04:54:26;;;;;;;6.93;3.47;;;5.70;96.90;;;;;;5096007;28;20358;-57
2024/01/27 04:56:52;;;;;;;7.88;3.67;;;5.70;96.90;;;;;;5095767;28;20016;-57
2024/01/27 04:59:17;;;;;;;8.40;3.53;;;5.60;96.90;;;;;;5095942;28;20028;-57
2024/01/27 05:01:46;;;;;;;8.27;3.70;;;5.60;96.80;;;;;;5095780;28;20035;-57
2024/01/27 05:04:13;;;;;;;5.95;3.10;;;5.40;96.90;;;;;;5095788;28;20031;-57
2024/01/27 05:06:43;;;;;;;7.55;2.97;;;5.40;97.00;;;;;;5095868;28;20408;-57
2024/01/27 05:09:09;;;;;;;6.72;2.85;;;5.20;97.10;;;;;;5095804;28;20032;-57
2024/01/27 05:11:34;;;;;;;8.57;2.83;;;5.20;97.30;;;;;;5095675;28;20077;-57
2024/01/27 05:14:01;;;;;;;7.32;2.65;;;5.10;97.50;;;;;;5095546;28;20040;-57
2024/01/27 05:16:28;;;;;;;6.43;2.42;;;5.00;97.70;;;;;;5095731;28;20092;-57
2024/01/27 05:18:54;;;;;;;6.85;2.88;;;4.90;97.90;;;;;;5095579;28;20036;-57
2024/01/27 05:21:20;;;;;;;7.07;2.47;;;4.80;98.20;;;;;;5095714;28;20031;-57
2024/01/27 05:23:45;;;;;;;8.90;2.22;;;4.70;98.20;;;;;;5095637;28;20474;-57
2024/01/27 05:26:11;;;;;;;7.10;2.30;;;4.50;98.50;;;;;;5095494;28;20036;-57
2024/01/27 05:28:39;;;;;;;6.35;2.65;;;4.50;98.60;;;;;;5095328;28;20040;-57
2024/01/27 05:31:08;;;;;;;7.00;2.63;;;4.50;98.60;;;;;;5095490;28;20027;-57
2024/01/27 05:33:35;;;;;;;6.82;2.50;;;4.50;98.50;;;;;;5095523;28;20028;-57
2024/01/27 05:36:01;;;;;;;9.50;2.65;;;4.40;98.60;;;;;;5095492;28;20160;-57
2024/01/27 05:38:29;;;;;;;6.63;2.47;;;4.30;98.90;;;;;;5095387;28;20032;-57
2024/01/27 05:40:55;;;;;;;11.05;5.22;;;4.10;98.90;;;;;;5095554;28;20134;-57
2024/01/27 05:43:22;;;;;;;13.90;3.05;;;3.90;99.60;;;;;;5095429;28;20426;-57
2024/01/27 05:45:49;;;;;;;8.20;3.30;;;3.80;99.90;;;;;;5095373;28;20055;-57
2024/01/27 05:48:15;;;;;;;8.27;3.50;;;3.60;99.90;;;;;;5099584;28;20050;-57
2024/01/27 05:50:43;;;;;;;7.10;3.47;;;3.50;99.90;;;;;;5099453;28;20020;-57
2024/01/27 05:53:09;;;;;;;6.65;2.90;;;3.50;99.90;;;;;;5098308;28;20020;-57
2024/01/27 05:55:34;;;;;;;10.82;4.90;;;3.40;99.90;;;;;;5099422;28;20025;-57
2024/01/27 05:58:00;;;;;;;7.60;3.50;;;3.20;99.90;;;;;;5099147;28;20060;-57
2024/01/27 06:00:26;;;;;;;11.88;3.30;;;3.10;99.90;;;;;;5099293;28;20028;-57
2024/01/27 06:02:52;;;;;;;70.00;35.45;;;3.00;99.90;;;;;;5099185;28;20031;-57
2024/01/27 06:05:18;;;;;;;26.80;13.30;;;2.90;99.90;;;;;;5099404;28;20020;-57
2024/01/27 06:07:46;;;;;;;17.63;10.98;;;2.80;99.90;;;;;;5098891;28;20458;-57
2024/01/27 06:10:12;;;;;;;10.68;4.10;;;2.80;99.90;;;;;;5099083;28;20431;-57
2024/01/27 06:12:39;;;;;;;7.47;3.45;;;2.70;99.90;;;;;;5098830;28;20040;-57
2024/01/27 06:15:06;;;;;;;13.05;5.95;;;2.60;99.90;;;;;;5099048;28;20027;-57
2024/01/27 06:17:31;;;;;;;16.88;7.75;;;2.60;99.90;;;;;;5098978;28;20385;-57
2024/01/27 06:19:57;;;;;;;9.32;4.38;;;2.60;99.90;;;;;;5098998;28;20158;-57
2024/01/27 06:22:23;;;;;;;15.55;6.97;;;2.50;99.90;;;;;;5098872;28;20056;-57
2024/01/27 06:24:49;;;;;;;9.60;4.72;;;2.50;99.90;;;;;;5098679;28;20531;-57
2024/01/27 06:27:15;;;;;;;7.63;4.65;;;2.50;99.90;;;;;;5098529;28;20043;-57
2024/01/27 06:29:41;;;;;;;7.53;2.63;;;2.50;99.90;;;;;;5098558;28;20032;-57
2024/01/27 06:32:07;;;;;;;4.50;2.25;;;2.40;99.90;;;;;;5098762;28;20537;-57
2024/01/27 06:34:33;;;;;;;7.43;3.25;;;2.30;99.90;;;;;;5098631;28;20055;-57
2024/01/27 06:36:59;;;;;;;7.68;3.45;;;2.20;99.90;;;;;;5098316;28;20392;-57
2024/01/27 06:39:25;;;;;;;12.48;5.85;;;2.30;99.90;;;;;;5098313;28;20424;-57
2024/01/27 06:41:51;;;;;;;15.63;7.97;;;2.40;99.90;;;;;;5098396;28;20024;-57
2024/01/27 06:44:17;;;;;;;20.58;11.50;;;2.40;99.90;;;;;;5098429;28;20052;-57
2024/01/27 06:46:44;;;;;;;13.77;7.13;;;2.40;99.90;;;;;;5098241;28;20059;-57
2024/01/27 06:49:10;;;;;;;6.70;4.68;;;2.40;99.90;;;;;;5098168;28;20044;-57
2024/01/27 06:51:36;;;;;;;7.00;3.60;;;3.30;99.90;;;;;;5098307;28;20035;-57
2024/01/27 06:54:02;;;;;;;5.68;2.58;;;4.30;99.90;;;;;;5097963;28;20036;-57
2024/01/27 06:56:28;;;;;;;9.93;5.88;;;5.30;99.90;;;;;;5096267;28;20382;-57
2024/01/27 06:58:53;;;;;;;21.50;8.82;;;6.40;98.00;;;;;;5095108;28;20478;-58
2024/01/27 07:01:19;;;;;;;29.38;14.70;;;7.10;95.60;;;;;;5096296;28;20028;-57
2024/01/27 07:03:45;;;;;;;30.23;13.57;;;8.40;93.80;;;;;;5096183;28;20032;-58
2024/01/27 07:06:11;;;;;;;37.08;18.92;;;9.10;91.70;;;;;;5096257;28;20024;-58
2024/01/27 07:08:37;;;;;;;38.53;20.33;;;10.50;85.70;;;;;;5096282;28;20036;-58
2024/01/27 07:11:03;;;;;;;49.10;25.48;;;11.00;83.10;;;;;;5097601;28;20048;-58
2024/01/27 07:13:30;;;;;;;48.67;27.77;;;11.40;77.90;;;;;;5097795;28;20052;-58
2024/01/27 07:15:57;;;;;;;53.85;28.33;;;11.40;76.00;;;;;;5097797;28;20020;-58
2024/01/27 07:18:24;;;;;;;48.63;27.50;;;11.90;72.90;;;;;;5097643;28;20477;-58
2024/01/27 07:20:51;;;;;;;66.72;34.22;;;12.50;71.90;;;;;;5097721;28;20046;-58
2024/01/27 07:23:17;;;;;;;154.35;66.50;;;13.40;67.80;;;;;;5097625;28;20039;-59
2024/01/27 07:25:43;;;;;;;82.00;38.60;;;14.20;61.20;;;;;;5097481;28;20028;-59
2024/01/27 07:28:09;;;;;;;88.15;41.03;;;14.00;57.80;;;;;;5097371;28;20075;-59
2024/01/27 07:30:37;;;;;;;130.95;54.05;;;13.10;59.20;;;;;;5097619;28;20031;-58
2024/01/27 07:33:03;;;;;;;201.68;79.50;;;13.50;58.50;;;;;;5097604;28;20492;-59
2024/01/27 07:35:29;;;;;;;257.52;101.53;;;13.60;58.30;;;;;;5097511;28;20036;-58
2024/01/27 07:37:55;;;;;;;297.42;115.47;;;14.50;55.90;;;;;;5097277;28;20032;-58
2024/01/27 07:40:20;;;;;;;254.65;95.93;;;15.50;53.10;;;;;;5097141;28;20036;-59
2024/01/27 07:42:46;;;;;;;273.10;112.20;;;16.00;51.00;;;;;;5097319;28;20515;-59
2024/01/27 07:45:12;;;;;;;177.13;70.25;;;16.50;49.80;;;;;;5097326;28;20020;-59
2024/01/27 07:47:38;;;;;;;121.88;49.08;;;16.60;44.60;;;;;;5097144;28;20054;-59
2024/01/27 07:50:04;;;;;;;69.93;28.55;;;16.30;44.10;;;;;;5096914;28;20027;-59
2024/01/27 07:52:30;;;;;;;81.78;31.90;;;16.50;40.50;;;;;;5095280;28;20071;-59
2024/01/27 07:54:56;;;;;;;49.50;20.73;;;17.80;39.20;;;;;;5095383;28;20024;-58
2024/01/27 07:57:22;;;;;;;48.45;15.73;;;19.40;33.90;;;;;;5095420;28;20103;-59
2024/01/27 07:59:47;;;;;;;27.85;8.35;;;19.50;32.10;;;;;;5096471;28;20370;-59
2024/01/27 08:02:13;;;;;;;21.60;6.32;;;18.90;31.20;;;;;;5096533;28;20034;-59
2024/01/27 08:04:39;;;;;;;12.02;3.85;;;18.30;30.00;;;;;;5096553;28;20028;-59
2024/01/27 08:07:06;;;;;;;13.65;3.55;;;18.10;29.00;;;;;;5096677;28;20031;-59
2024/01/27 08:09:31;;;;;;;29.00;5.88;;;18.70;29.80;;;;;;5096488;28;20359;-59
2024/01/27 08:11:57;;;;;;;22.23;3.95;;;18.90;29.00;;;;;;5096739;28;20031;-59
2024/01/27 08:14:23;;;;;;;12.55;3.58;;;18.60;28.30;;;;;;5096703;28;20024;-59
2024/01/27 08:16:49;;;;;;;25.08;4.20;;;17.80;30.10;;;;;;5096639;28;20370;-59
2024/01/27 08:19:20;;;;;;;40.75;7.22;;;17.80;29.20;;;;;;5096475;28;20560;-59
2024/01/27 08:21:46;;;;;;;15.27;4.20;;;19.00;28.30;;;;;;5095329;28;20040;-59
2024/01/27 08:24:13;;;;;;;16.50;4.25;;;18.20;28.00;;;;;;5096431;28;20062;-59
2024/01/27 08:26:39;;;;;;;20.08;3.80;;;17.80;29.10;;;;;;5096403;28;20035;-59
2024/01/27 08:29:05;;;;;;;16.20;3.55;;;18.40;29.20;;;;;;5096355;28;20385;-59
2024/01/27 08:31:31;;;;;;;18.50;4.00;;;18.50;27.40;;;;;;5096398;28;20390;-59
2024/01/27 08:33:57;;;;;;;26.90;5.32;;;18.30;27.70;;;;;;5096268;28;20028;-59
2024/01/27 08:36:23;;;;;;;16.10;4.07;;;18.70;27.20;;;;;;5096280;28;20119;-59
2024/01/27 08:38:49;;;;;;;36.45;12.48;;;18.30;27.30;;;;;;5096140;28;20028;-59
2024/01/27 08:41:15;;;;;;;8.73;3.30;;;19.10;27.00;;;;;;5096261;28;20082;-59
2024/01/27 08:43:40;;;;;;;38.70;7.35;;;19.00;26.00;;;;;;5096241;28;20412;-59
2024/01/27 08:46:11;;;;;;;3.47;1.95;;;19.30;25.30;;;;;;5096133;28;20040;-59
2024/01/27 08:48:37;;;;;;;12.82;3.25;;;19.30;24.70;;;;;;5096009;28;20050;-59
2024/01/27 08:51:03;;;;;;;12.55;3.92;;;18.30;25.10;;;;;;5095887;28;20458;-59
2024/01/27 08:53:29;;;;;;;24.73;5.35;;;18.70;24.80;;;;;;5096037;28;20027;-59
2024/01/27 08:55:55;;;;;;;5.72;2.92;;;18.40;25.20;;;;;;5095986;28;20052;-59
2024/01/27 08:58:21;;;;;;;5.25;2.38;;;19.10;25.30;;;;;;5095911;28;20472;-59
2024/01/27 09:00:46;;;;;;;6.43;2.08;;;18.70;23.60;;;;;;5095930;28;20028;-59
2024/01/27 09:03:14;;;;;;;8.80;2.38;;;18.70;22.80;;;;;;5095790;28;20028;-59
2024/01/27 09:05:43;;;;;;;32.88;6.10;;;18.10;24.80;;;;;;5095647;28;20171;-59
2024/01/27 09:08:09;;;;;;;21.33;3.75;;;17.90;22.90;;;;;;5095494;28;20024;-59
2024/01/27 09:10:35;;;;;;;19.63;4.05;;;18.30;23.00;;;;;;5096360;28;20095;-59
2024/01/27 09:13:01;;;;;;;16.75;3.53;;;18.70;22.10;;;;;;5095643;28;20021;-59
2024/01/27 09:15:27;;;;;;;7.82;2.22;;;18.70;22.90;;;;;;5095726;28;20053;-59
2024/01/27 09:17:52;;;;;;;5.80;2.95;;;19.50;21.30;;;;;;5095377;28;20410;-59
2024/01/27 09:20:19;;;;;;;4.78;1.67;;;19.50;19.90;;;;;;5095525;28;20068;-59
2024/01/27 09:22:47;;;;;;;11.93;2.10;;;18.70;21.60;;;;;;5095120;28;20020;-59
2024/01/27 09:25:13;;;;;;;9.10;2.33;;;19.20;21.40;;;;;;5095566;28;20025;-59
2024/01/27 09:27:39;;;;;;;17.45;3.47;;;19.70;21.10;;;;;;5095588;28;20043;-59
2024/01/27 09:30:06;;;;;;;9.20;1.90;;;19.60;20.00;;;;;;5095566;28;20020;-59
2024/01/27 09:32:32;;;;;;;5.80;1.10;;;19.30;21.10;;;;;;5095560;28;20028;-59
2024/01/27 09:34:58;;;;;;;4.55;1.30;;;18.90;19.70;;;;;;5095481;28;20028;-59
2024/01/27 09:37:24;;;;;;;8.52;2.15;;;19.20;20.70;;;;;;5095403;28;20485;-59
2024/01/27 09:39:50;;;;;;;10.13;1.67;;;19.30;20.60;;;;;;5095263;28;20036;-59
2024/01/27 09:42:20;;;;;;;11.05;1.73;;;18.80;20.30;;;;;;5095505;28;20020;-59
2024/01/27 09:44:49;;;;;;;8.85;1.85;;;18.50;19.80;;;;;;5095548;28;20501;-59
2024/01/27 09:47:15;;;;;;;2.47;0.80;;;18.40;19.80;;;;;;5095361;28;20054;-59
2024/01/27 09:49:42;;;;;;;7.68;1.55;;;18.60;21.80;;;;;;5095316;28;20056;-59
2024/01/27 09:52:09;;;;;;;7.95;1.40;;;18.10;19.60;;;;;;5095316;28;20032;-59
2024/01/27 09:54:36;;;;;;;5.15;1.58;;;18.80;21.30;;;;;;5095336;28;20072;-59
2024/01/27 09:57:02;;;;;;;3.38;1.30;;;18.80;19.80;;;;;;5095306;28;20076;-59
2024/01/27 09:59:29;;;;;;;4.00;0.98;;;18.70;20.70;;;;;;5095226;28;20089;-59
2024/01/27 10:01:57;;;;;;;1.15;0.80;;;18.80;20.00;;;;;;5095197;28;20035;-59
2024/01/27 10:04:25;;;;;;;6.78;1.00;;;18.90;19.80;;;;;;5094132;28;20028;-59
2024/01/27 10:06:53;;;;;;;4.35;0.80;;;18.30;20.90;;;;;;5095150;28;20043;-59
2024/01/27 10:09:19;;;;;;;3.10;1.15;;;18.50;20.50;;;;;;5095128;28;20032;-59
2024/01/27 10:11:50;;;;;;;3.25;1.38;;;18.80;20.10;;;;;;5095123;28;20027;-59
2024/01/27 10:14:16;;;;;;;8.85;1.52;;;18.70;19.70;;;;;;5095027;28;20021;-58
2024/01/27 10:16:46;;;;;;;12.77;2.28;;;18.70;21.50;;;;;;5095021;28;20428;-59
2024/01/27 10:19:17;;;;;;;26.65;13.48;;;18.50;21.10;;;;;;5095087;28;20486;-59
2024/01/27 10:21:47;;;;;;;7.40;3.42;;;18.70;19.90;;;;;;5094944;28;20055;-59
2024/01/27 10:24:14;;;;;;;10.27;2.13;;;19.40;20.80;;;;;;5095149;28;20031;-59
2024/01/27 10:26:40;;;;;;;9.85;2.58;;;20.00;18.60;;;;;;5094910;28;20028;-59
2024/01/27 10:29:06;;;;;;;10.68;2.95;;;20.00;18.00;;;;;;5094814;28;20024;-59
2024/01/27 10:31:35;;;;;;;22.92;9.10;;;19.90;18.90;;;;;;5094979;28;20457;-59
2024/01/27 10:34:04;;;;;;;23.27;9.50;;;18.80;19.40;;;;;;5096670;28;20385;-59
2024/01/27 10:36:43;;;;;;;4.88;1.65;;;18.90;20.50;;;;;;5098588;28;20025;-59
2024/01/27 10:39:16;;;;;;;1.63;0.75;;;18.50;20.80;;;;;;5098559;28;20035;-59
2024/01/27 10:41:45;;;;;;;12.23;3.25;;;19.20;19.90;;;;;;5098412;28;20115;-59
2024/01/27 10:44:15;;;;;;;7.43;2.80;;;19.20;20.40;;;;;;5098460;28;20024;-59
2024/01/27 10:46:47;;;;;;;3.13;1.23;;;19.60;20.80;;;;;;5098373;28;20077;-58
2024/01/27 10:49:14;;;;;;;12.30;2.72;;;17.20;19.90;;;;;;5098293;28;20024;-58
2024/01/27 10:51:55;;;;;;;2.38;1.10;;;15.80;22.70;;;;;;5098055;28;20119;-59
2024/01/27 10:54:27;;;;;;;;;;;16.10;23.30;;;;;;5098675;28;20512;-58
2024/01/27 10:56:56;;;;;;;5.63;0.90;;;16.50;23.80;;;;;;5098140;28;20288;-58
2024/01/27 10:59:22;;;;;;;9.07;2.35;;;17.20;22.90;;;;;;5098261;28;20431;-58
2024/01/27 11:01:53;;;;;;;3.05;1.30;;;17.20;22.30;;;;;;5098195;28;20036;-58
2024/01/27 11:04:22;;;;;;;4.00;1.95;;;17.90;21.40;;;;;;5098081;28;20028;-58
2024/01/27 11:06:49;;;;;;;4.78;1.98;;;18.00;21.20;;;;;;5097686;28;20502;-59
2024/01/27 11:09:15;;;;;;;12.85;4.97;;;18.30;22.50;;;;;;5097985;28;20462;-59
2024/01/27 11:11:42;;;;;;;8.30;2.00;;;18.90;21.30;;;;;;5097795;28;20494;-59
2024/01/27 11:14:10;;;;;;;7.90;2.38;;;18.50;19.80;;;;;;5097893;28;20034;-59
2024/01/27 11:16:38;;;;;;;4.00;0.70;;;19.30;19.90;;;;;;5097785;28;20389;-59
2024/01/27 11:19:04;;;;;;;6.75;2.15;;;18.20;20.30;;;;;;5096711;28;20036;-59
2024/01/27 11:21:30;;;;;;;21.20;5.22;;;18.80;21.30;;;;;;5097770;28;20040;-59
2024/01/27 11:23:56;;;;;;;5.15;1.83;;;19.00;20.30;;;;;;5097626;28;20024;-59
2024/01/27 11:26:23;;;;;;;5.97;1.77;;;17.90;20.70;;;;;;5097558;28;20024;-59
2024/01/27 11:28:49;;;;;;;3.35;1.23;;;17.50;21.70;;;;;;5095363;28;20086;-58
2024/01/27 11:31:21;;;;;;;2.03;1.35;;;18.70;21.60;;;;;;5097271;28;20342;-59
2024/01/27 11:33:51;;;;;;;10.52;2.30;;;19.70;20.60;;;;;;5097472;28;20055;-59
2024/01/27 11:36:22;;;;;;;5.78;2.03;;;19.30;19.50;;;;;;5097465;28;20072;-59
2024/01/27 11:38:50;;;;;;;8.48;2.30;;;19.20;20.90;;;;;;5097404;28;20032;-59
2024/01/27 11:41:29;;;;;;;5.30;3.42;;;19.70;19.90;;;;;;5097166;28;20024;-59
2024/01/27 11:43:56;;;;;;;7.65;2.03;;;20.10;19.00;;;;;;5096557;28;20600;-59
2024/01/27 11:46:23;;;;;;;7.65;2.05;;;18.50;20.50;;;;;;5097224;28;20024;-59
2024/01/27 11:48:49;;;;;;;7.80;3.33;;;18.20;21.50;;;;;;5097049;28;20063;-59
2024/01/27 11:51:15;;;;;;;5.32;1.50;;;18.70;21.10;;;;;;5097089;28;20069;-59
2024/01/27 11:53:41;;;;;;;3.40;1.30;;;18.40;20.50;;;;;;5096957;28;20032;-59
2024/01/27 11:56:07;;;;;;;4.65;1.70;;;16.90;22.00;;;;;;5096945;28;20016;-59
2024/01/27 11:58:33;;;;;;;6.03;2.33;;;17.40;22.40;;;;;;5096914;28;20103;-59
2024/01/27 12:01:00;;;;;;;6.72;2.42;;;17.60;22.30;;;;;;5096916;28;20036;-59
2024/01/27 12:03:27;;;;;;;5.20;1.58;;;17.60;22.80;;;;;;5096953;28;20031;-59
2024/01/27 12:05:53;;;;;;;4.18;1.77;;;16.70;22.60;;;;;;5096722;28;20028;-58
2024/01/27 12:08:19;;;;;;;18.17;2.90;;;16.90;23.50;;;;;;5096586;28;20375;-59
2024/01/27 12:10:45;;;;;;;11.85;4.68;;;17.20;24.10;;;;;;5096730;28;20498;-59
2024/01/27 12:13:11;;;;;;;6.30;2.00;;;18.00;22.50;;;;;;5096593;28;20020;-59
2024/01/27 12:15:37;;;;;;;8.57;3.50;;;18.70;21.20;;;;;;5096717;28;20024;-58
2024/01/27 12:18:05;;;;;;;11.23;4.40;;;18.50;21.30;;;;;;5096492;28;20031;-58
2024/01/27 12:20:31;;;;;;;6.30;2.13;;;18.30;22.00;;;;;;5096648;28;20377;-59
2024/01/27 12:23:06;;;;;;;6.70;2.47;;;19.10;20.10;;;;;;5096522;28;20016;-59
2024/01/27 12:25:32;;;;;;;4.93;1.95;;;18.60;20.60;;;;;;5096499;28;20039;-58
2024/01/27 12:28:11;;;;;;;9.48;2.67;;;16.90;22.30;;;;;;5096379;28;20028;-58
2024/01/27 12:30:37;;;;;;;5.30;2.33;;;16.40;24.60;;;;;;5096480;28;20044;-58
2024/01/27 12:33:11;;;;;;;6.35;2.53;;;17.00;23.80;;;;;;5096482;28;20081;-59
2024/01/27 12:35:37;;;;;;;12.02;5.45;;;17.20;23.00;;;;;;5096421;28;20172;-58
2024/01/27 12:38:06;;;;;;;19.02;4.80;;;17.40;23.00;;;;;;5096058;28;20036;-59